Time;durP1;ratioP1;P1;durP2;ratioP2;P2;SDS_P1;SDS_P2;PMS_P1;PMS_P2;Temp;Humidity;BMP_temperature;BMP_pressure;BME280_temperature;BME280_humidity;BME280_pressure;Samples;Min_cycle;Max_cycle;Signal;HPM_P1;HPM_P2
2022/11/10 00:01:50;;;;;;;46.28;23.25;;;;;;;;;;5109174;27;20024;-74
2022/11/10 00:04:16;;;;;;;49.23;23.97;;;;;;;;;;5110193;27;20038;-73
2022/11/10 00:06:41;;;;;;;47.63;23.07;;;;;;;;;;5088517;28;20118;-74
2022/11/10 00:09:06;;;;;;;47.93;23.60;;;;;;;;;;5089979;27;20027;-75
2022/11/10 00:11:32;;;;;;;49.87;24.80;;;;;;;6.38;nan;101018.75;5093761;28;20691;-74
2022/11/10 00:16:59;;;;;;;47.70;23.48;;;;;;;;;;5108607;27;20084;-73
2022/11/10 00:19:25;;;;;;;49.28;24.45;;;;;;;;;;5105182;27;20069;-75
2022/11/10 00:21:50;;;;;;;46.25;23.90;;;;;;;;;;5097442;27;20019;-74
2022/11/10 00:24:15;;;;;;;46.73;22.43;;;;;;;;;;5091624;28;20076;-75
2022/11/10 00:26:40;;;;;;;44.17;22.80;;;;;;;;;;5115157;27;20303;-74
2022/11/10 00:29:06;;;;;;;45.87;22.73;;;;;;;;;;5091142;28;20063;-75
2022/11/10 00:31:31;;;;;;;47.47;22.70;;;;;;;;;;5109198;27;20335;-74
2022/11/10 00:33:56;;;;;;;45.73;23.03;;;;;;;;;;5102131;27;20031;-73
2022/11/10 00:36:22;;;;;;;46.70;23.40;;;;;;;;;;5095347;27;20020;-74
2022/11/10 00:38:49;;;;;;;43.53;21.83;;;;;;;;;;5096309;28;20074;-74
2022/11/10 00:41:14;;;;;;;48.13;23.15;;;;;;;;;;5110763;27;20032;-74
2022/11/10 00:43:40;;;;;;;45.60;22.17;;;;;;;;;;5108968;27;20042;-74
2022/11/10 00:46:05;;;;;;;41.80;21.02;;;;;;;;;;5109230;27;20024;-75
2022/11/10 00:48:30;;;;;;;46.40;22.57;;;;;;;;;;5110199;27;20023;-74
2022/11/10 00:50:55;;;;;;;48.00;22.37;;;;;;;;;;5088339;28;20019;-74
2022/11/10 00:53:20;;;;;;;41.63;21.37;;;;;;;;;;5109232;27;20282;-75
2022/11/10 00:55:46;;;;;;;41.37;20.70;;;;;;;;;;5107590;27;20068;-75
2022/11/10 00:58:11;;;;;;;45.83;22.58;;;;;;;;;;5090263;28;20055;-74
2022/11/10 01:00:36;;;;;;;38.87;20.73;;;;;;;;;;5089990;27;20023;-75
2022/11/10 01:03:02;;;;;;;42.83;22.07;;;;;;;;;;5108302;27;20282;-74
2022/11/10 01:05:28;;;;;;;42.30;20.83;;;;;;;;;;5108241;27;20437;-74
2022/11/10 01:07:53;;;;;;;40.38;20.77;;;;;;;;;;5097921;27;20502;-73
2022/11/10 01:10:18;;;;;;;40.15;20.42;;;;;;;;;;5109606;27;20038;-75
2022/11/10 01:12:44;;;;;;;41.70;20.60;;;;;;;6.47;nan;101012.41;5110002;27;20055;-73
2022/11/10 01:15:09;;;;;;;42.13;21.67;;;;;;;;;;5113348;27;20039;-74
2022/11/10 01:17:34;;;;;;;43.08;21.70;;;;;;;;;;5109426;27;20062;-75
2022/11/10 01:20:00;;;;;;;44.63;21.80;;;;;;;;;;5108414;27;20461;-74
2022/11/10 01:22:25;;;;;;;44.50;21.90;;;;;;;;;;5112088;27;20271;-74
2022/11/10 01:24:50;;;;;;;43.67;22.07;;;;;;;;;;5090498;28;20812;-73
2022/11/10 01:27:15;;;;;;;41.47;19.80;;;;;;;;;;5104422;27;20290;-74
2022/11/10 01:29:41;;;;;;;42.77;21.27;;;;;;;;;;5107416;27;20702;-75
2022/11/10 01:32:06;;;;;;;37.70;19.85;;;;;;;;;;5104747;27;20308;-73
2022/11/10 01:34:31;;;;;;;40.40;21.05;;;;;;;;;;5092011;27;20021;-73
2022/11/10 01:36:56;;;;;;;40.63;20.63;;;;;;;;;;5100349;27;20027;-74
2022/11/10 01:39:22;;;;;;;41.30;21.03;;;;;;;;;;5112584;27;20035;-74
2022/11/10 01:41:47;;;;;;;41.93;20.60;;;;;;;;;;5105109;27;20031;-74
2022/11/10 01:44:20;;;;;;;39.33;19.93;;;;;;;;;;5093202;28;20080;-74
2022/11/10 01:46:45;;;;;;;40.10;20.15;;;;;;;;;;5088960;28;20565;-73
2022/11/10 01:49:11;;;;;;;43.22;20.65;;;;;;;;;;5092711;27;20027;-72
2022/11/10 01:51:56;;;;;;;43.45;20.80;;;;;;;;;;5107238;27;20038;-75
2022/11/10 01:54:27;;;;;;;39.85;20.08;;;;;;;;;;5110331;27;20036;-72
2022/11/10 01:56:54;;;;;;;37.40;19.75;;;;;;;;;;5104700;27;20472;-73
2022/11/10 01:59:27;;;;;;;38.70;20.08;;;;;;;;;;5097783;28;20023;-72
2022/11/10 02:01:55;;;;;;;41.72;20.27;;;;;;;;;;5107600;27;20115;-72
2022/11/10 02:04:20;;;;;;;39.75;19.98;;;;;;;;;;5110650;27;20496;-72
2022/11/10 02:06:47;;;;;;;42.97;21.73;;;;;;;;;;5089618;27;20032;-72
2022/11/10 02:09:12;;;;;;;39.33;20.70;;;;;;;;;;5092284;28;20481;-72
2022/11/10 02:11:40;;;;;;;42.08;20.52;;;;;;;6.73;nan;101032.06;5090720;28;20058;-73
2022/11/10 02:14:06;;;;;;;41.92;20.58;;;;;;;;;;5110833;27;20442;-72
2022/11/10 02:16:32;;;;;;;40.28;21.30;;;;;;;;;;5108208;28;20111;-72
2022/11/10 02:18:57;;;;;;;41.75;21.02;;;;;;;;;;5102864;28;20362;-72
2022/11/10 02:21:22;;;;;;;38.73;20.23;;;;;;;;;;5102897;28;20027;-72
2022/11/10 02:23:49;;;;;;;40.38;20.63;;;;;;;;;;5092052;28;20188;-72
2022/11/10 02:26:28;;;;;;;41.45;20.67;;;;;;;;;;5092435;28;20103;-71
2022/11/10 02:28:53;;;;;;;41.72;20.92;;;;;;;;;;5100868;28;20028;-71
2022/11/10 02:31:19;;;;;;;47.33;21.60;;;;;;;;;;5093554;28;20476;-72
2022/11/10 02:33:44;;;;;;;42.50;20.27;;;;;;;;;;5107118;28;20054;-71
2022/11/10 02:36:09;;;;;;;40.73;20.50;;;;;;;;;;5085324;28;20307;-71
2022/11/10 02:38:35;;;;;;;43.78;20.60;;;;;;;;;;5087904;28;20031;-70
2022/11/10 02:41:00;;;;;;;47.63;21.83;;;;;;;;;;5112377;28;20035;-71
2022/11/10 02:43:25;;;;;;;40.27;20.33;;;;;;;;;;5105495;28;20030;-70
2022/11/10 02:45:50;;;;;;;39.92;20.17;;;;;;;;;;5086004;28;20032;-71
2022/11/10 02:48:16;;;;;;;45.60;22.53;;;;;;;;;;5106696;28;20030;-72
2022/11/10 02:50:41;;;;;;;42.28;21.30;;;;;;;;;;5108069;28;20070;-72
2022/11/10 02:53:06;;;;;;;40.63;20.15;;;;;;;;;;5087344;28;20388;-72
2022/11/10 02:55:32;;;;;;;43.30;21.13;;;;;;;;;;5104897;28;20076;-71
2022/11/10 02:57:57;;;;;;;44.03;20.67;;;;;;;;;;5106994;28;20271;-71
2022/11/10 03:00:22;;;;;;;43.38;21.17;;;;;;;;;;5108791;28;20039;-71
2022/11/10 03:02:48;;;;;;;45.83;21.73;;;;;;;;;;5109379;28;20030;-70
2022/11/10 03:05:13;;;;;;;39.60;20.50;;;;;;;;;;5092733;28;20298;-71
2022/11/10 03:07:38;;;;;;;43.67;21.90;;;;;;;;;;5104472;28;20032;-71
2022/11/10 03:10:05;;;;;;;44.03;21.27;;;;;;;;;;5112962;28;20322;-71
2022/11/10 03:12:30;;;;;;;46.53;21.58;;;;;;;;;;5095215;28;20043;-71
2022/11/10 03:14:55;;;;;;;43.40;21.27;;;;;;;;;;5109508;28;20032;-72
2022/11/10 03:17:20;;;;;;;40.53;20.50;;;;;;;;;;5103386;28;20792;-72
2022/11/10 03:19:46;;;;;;;44.23;21.60;;;;;;;;;;5083175;28;20280;-72
2022/11/10 03:22:11;;;;;;;48.07;20.73;;;;;;;;;;5113861;28;20315;-72
2022/11/10 03:24:36;;;;;;;44.30;21.70;;;;;;;;;;5108626;28;20110;-71
2022/11/10 03:27:01;;;;;;;43.70;20.73;;;;;;;;;;5102360;28;20357;-71
2022/11/10 03:29:26;;;;;;;44.67;21.47;;;;;;;;;;5101458;28;20027;-71
2022/11/10 03:31:52;;;;;;;44.43;20.93;;;;;;;;;;5102856;28;20761;-74
2022/11/10 03:34:17;;;;;;;40.58;20.77;;;;;;;;;;5101075;28;20027;-72
2022/11/10 03:36:42;;;;;;;44.17;21.13;;;;;;;;;;5104777;28;20039;-72
2022/11/10 03:39:08;;;;;;;44.70;21.10;;;;;;;;;;5088566;28;20759;-73
2022/11/10 03:41:33;;;;;;;46.10;20.30;;;;;;;;;;5105683;28;20289;-72
2022/11/10 03:43:58;;;;;;;43.93;21.40;;;;;;;;;;5085594;27;20031;-71
2022/11/10 03:46:23;;;;;;;44.20;21.67;;;;;;;;;;5109911;27;20080;-72
2022/11/10 03:48:49;;;;;;;41.27;20.87;;;;;;;;;;5108909;27;20795;-72
2022/11/10 03:51:14;;;;;;;39.55;20.48;;;;;;;;;;5089161;28;20396;-72
2022/11/10 03:53:39;;;;;;;41.50;20.53;;;;;;;;;;5088118;27;20404;-71
2022/11/10 03:56:05;;;;;;;45.33;21.47;;;;;;;;;;5109055;27;20276;-73
2022/11/10 03:58:30;;;;;;;43.10;20.90;;;;;;;;;;5092034;27;20784;-71
2022/11/10 04:00:56;;;;;;;46.57;21.60;;;;;;;;;;5092562;28;20426;-71
2022/11/10 04:03:21;;;;;;;43.75;21.35;;;;;;;;;;5104687;27;20272;-71
2022/11/10 04:09:13;;;;;;;41.25;20.73;;;;;;;;;;5108600;27;20039;-74
2022/11/10 04:16:47;;;;;;;45.35;21.10;;;;;;;;;;5103183;28;20053;-73
2022/11/10 04:19:12;;;;;;;43.03;20.53;;;;;;;;;;5107829;27;20684;-72
2022/11/10 04:21:38;;;;;;;43.83;21.50;;;;;;;;;;5113503;27;20057;-72
2022/11/10 04:24:03;;;;;;;43.33;19.88;;;;;;;;;;5105566;27;20080;-72
2022/11/10 04:26:28;;;;;;;47.58;21.70;;;;;;;;;;5109575;27;20028;-71
2022/11/10 04:28:54;;;;;;;43.33;21.13;;;;;;;;;;5104863;28;20032;-71
2022/11/10 04:31:20;;;;;;;43.20;20.13;;;;;;;;;;5107069;28;20023;-70
2022/11/10 04:33:46;;;;;;;40.08;20.80;;;;;;;;;;5103097;27;20481;-71
2022/11/10 04:36:13;;;;;;;44.60;21.00;;;;;;;;;;5103156;27;20123;-74
2022/11/10 04:38:38;;;;;;;45.35;21.10;;;;;;;;;;5090658;28;20016;-73
2022/11/10 04:41:04;;;;;;;42.25;20.08;;;;;;;;;;5104354;27;20031;-72
2022/11/10 04:43:29;;;;;;;43.33;20.77;;;;;;;;;;5084348;28;20024;-70
2022/11/10 04:45:54;;;;;;;38.53;19.47;;;;;;;;;;5102993;27;20439;-70
2022/11/10 04:48:20;;;;;;;47.97;21.70;;;;;;;;;;5099808;27;20283;-70
2022/11/10 04:50:45;;;;;;;42.45;20.70;;;;;;;;;;5085156;28;20390;-71
2022/11/10 04:53:10;;;;;;;47.28;20.88;;;;;;;;;;5107312;27;20107;-71
2022/11/10 04:55:39;;;;;;;42.47;20.70;;;;;;;;;;5105294;27;20055;-71
2022/11/10 04:58:05;;;;;;;43.80;21.20;;;;;;;;;;5101573;27;20089;-72
2022/11/10 05:00:30;;;;;;;46.25;21.58;;;;;;;;;;5096263;28;20046;-71
2022/11/10 05:02:58;;;;;;;44.78;20.58;;;;;;;;;;5088441;28;20030;-72
2022/11/10 05:05:23;;;;;;;47.80;22.13;;;;;;;;;;5110098;27;20538;-72
2022/11/10 05:07:48;;;;;;;49.10;21.83;;;;;;;;;;5090466;28;20036;-72
2022/11/10 05:10:14;;;;;;;46.40;22.37;;;;;;;;;;5100334;28;20028;-73
2022/11/10 05:12:39;;;;;;;45.92;21.60;;;;;;;;;;5116709;27;20405;-72
2022/11/10 05:15:05;;;;;;;45.47;22.13;;;;;;;;;;5094375;27;20031;-73
2022/11/10 05:17:30;;;;;;;46.72;22.17;;;;;;;;;;5102796;27;20280;-73
2022/11/10 05:19:55;;;;;;;45.67;21.37;;;;;;;;;;5108788;27;20140;-72
2022/11/10 05:22:20;;;;;;;41.90;21.20;;;;;;;;;;5105872;27;20024;-73
2022/11/10 05:24:46;;;;;;;45.23;21.30;;;;;;;;;;5108523;27;20661;-73
2022/11/10 05:27:11;;;;;;;48.40;22.00;;;;;;;;;;5091109;28;20371;-71
2022/11/10 05:29:36;;;;;;;40.40;20.50;;;;;;;;;;5101087;28;20332;-71
2022/11/10 05:32:01;;;;;;;44.27;21.27;;;;;;;;;;5099072;28;21603;-70
2022/11/10 05:34:27;;;;;;;45.65;20.52;;;;;;;;;;5084472;28;20692;-70
2022/11/10 05:36:52;;;;;;;47.07;21.30;;;;;;;;;;5085089;28;20182;-71
2022/11/10 05:39:17;;;;;;;46.13;20.87;;;;;;;;;;5098607;27;20038;-71
2022/11/10 05:41:42;;;;;;;48.70;23.17;;;;;;;;;;5091775;28;20081;-71
2022/11/10 05:44:08;;;;;;;40.43;20.03;;;;;;;;;;5108307;27;20039;-72
2022/11/10 05:46:33;;;;;;;47.13;21.00;;;;;;;;;;5094041;28;20059;-72
2022/11/10 05:48:58;;;;;;;43.70;21.47;;;;;;;;;;5087692;27;20485;-71
2022/11/10 05:51:23;;;;;;;45.23;20.80;;;;;;;;;;5101189;27;20476;-73
2022/11/10 05:53:49;;;;;;;48.90;20.27;;;;;;;;;;5114076;27;20110;-74
2022/11/10 05:56:14;;;;;;;46.10;22.20;;;;;;;;;;5107438;27;20028;-74
2022/11/10 05:58:39;;;;;;;43.97;21.10;;;;;;;;;;5107646;27;20272;-73
2022/11/10 06:01:04;;;;;;;45.97;20.87;;;;;;;;;;5104195;27;20087;-74
2022/11/10 06:03:30;;;;;;;41.13;20.00;;;;;;;;;;5092447;27;20455;-75
2022/11/10 06:05:55;;;;;;;43.80;21.90;;;;;;;;;;5104948;27;20123;-73
2022/11/10 06:08:21;;;;;;;43.20;21.17;;;;;;;;;;5104522;28;20037;-73
2022/11/10 06:10:46;;;;;;;45.93;21.77;;;;;;;;;;5107018;27;20397;-73
2022/11/10 06:13:11;;;;;;;47.77;22.03;;;;;;;;;;5090515;27;20419;-74
2022/11/10 06:15:36;;;;;;;46.17;22.07;;;;;;;;;;5093157;28;20089;-76
2022/11/10 06:18:02;;;;;;;43.92;20.98;;;;;;;;;;5106736;27;20035;-72
2022/11/10 06:20:28;;;;;;;46.60;22.95;;;;;;;;;;5103613;28;20020;-72
2022/11/10 06:23:03;;;;;;;53.83;23.00;;;;;;;;;;5110302;28;20047;-73
2022/11/10 06:25:29;;;;;;;43.15;21.48;;;;;;;;;;5101350;28;20026;-72
2022/11/10 06:27:55;;;;;;;42.58;21.95;;;;;;;;;;5085156;28;20042;-74
2022/11/10 06:30:21;;;;;;;47.13;22.90;;;;;;;;;;5101805;28;20032;-73
2022/11/10 06:32:46;;;;;;;43.30;21.60;;;;;;;;;;5105083;28;20038;-72
2022/11/10 06:35:11;;;;;;;48.43;22.23;;;;;;;;;;5100772;28;20472;-73
2022/11/10 06:37:39;;;;;;;44.83;22.83;;;;;;;;;;5088538;28;20407;-73
2022/11/10 06:40:05;;;;;;;44.63;22.80;;;;;;;;;;5082189;28;20028;-73
2022/11/10 06:42:31;;;;;;;48.53;21.52;;;;;;;;;;5109054;28;20024;-75
2022/11/10 06:44:56;;;;;;;47.22;21.88;;;;;;;;;;5085943;28;20346;-75
2022/11/10 06:47:21;;;;;;;45.77;21.83;;;;;;;;;;5107688;28;20373;-73
2022/11/10 06:49:46;;;;;;;41.00;21.47;;;;;;;;;;5106635;28;20092;-73
2022/11/10 06:52:12;;;;;;;46.67;21.95;;;;;;;;;;5089601;28;20277;-73
2022/11/10 06:54:37;;;;;;;49.38;22.60;;;;;;;;;;5098864;28;20036;-73
2022/11/10 06:57:02;;;;;;;44.50;22.20;;;;;;;;;;5108926;28;20033;-73
2022/11/10 06:59:28;;;;;;;44.92;21.27;;;;;;;;;;5087613;28;20265;-73
2022/11/10 07:01:53;;;;;;;44.77;20.37;;;;;;;;;;5084880;28;20034;-73
2022/11/10 07:04:18;;;;;;;46.50;21.40;;;;;;;;;;5107301;28;20027;-73
2022/11/10 07:06:44;;;;;;;43.10;21.33;;;;;;;;;;5097602;28;20036;-73
2022/11/10 07:09:10;;;;;;;45.22;21.42;;;;;;;;;;5090435;28;20066;-73
2022/11/10 07:11:35;;;;;;;47.30;21.17;;;;;;;;;;5106292;28;20051;-73
2022/11/10 07:14:00;;;;;;;44.30;20.47;;;;;;;;;;5100094;28;20121;-72
2022/11/10 07:16:25;;;;;;;50.47;21.37;;;;;;;;;;5087982;28;20083;-73
2022/11/10 07:18:51;;;;;;;46.40;21.37;;;;;;;;;;5093322;28;20268;-73
2022/11/10 07:21:16;;;;;;;47.93;23.47;;;;;;;;;;5094173;28;20377;-73
2022/11/10 07:23:41;;;;;;;55.23;24.90;;;;;;;;;;5108245;27;20023;-73
2022/11/10 07:26:06;;;;;;;56.50;26.20;;;;;;;;;;5088471;27;20367;-72
2022/11/10 07:28:32;;;;;;;51.70;27.13;;;;;;;;;;5108634;27;20280;-73
2022/11/10 07:30:59;;;;;;;59.73;28.63;;;;;;;;;;5110535;27;20028;-73
2022/11/10 07:33:25;;;;;;;66.20;30.40;;;;;;;;;;5101203;27;20020;-73
2022/11/10 07:36:02;;;;;;;63.00;29.90;;;;;;;;;;5087092;27;20030;-73
2022/11/10 07:38:27;;;;;;;63.30;27.58;;;;;;;;;;5101358;28;20031;-72
2022/11/10 07:40:53;;;;;;;57.38;27.60;;;;;;;;;;5089121;27;20039;-72
2022/11/10 07:43:19;;;;;;;61.80;27.50;;;;;;;;;;5090933;28;20051;-71
2022/11/10 07:45:44;;;;;;;54.83;26.25;;;;;;;;;;5112029;27;20407;-70
2022/11/10 07:48:09;;;;;;;60.05;26.30;;;;;;;;;;5091832;28;20024;-71
2022/11/10 07:50:35;;;;;;;51.27;24.27;;;;;;;;;;5093889;28;20030;-71
2022/11/10 07:53:13;;;;;;;51.30;24.65;;;;;;;;;;5103952;27;20371;-70
2022/11/10 07:55:40;;;;;;;55.90;24.58;;;;;;;;;;5094361;28;20031;-70
2022/11/10 07:58:05;;;;;;;51.92;24.38;;;;;;;;;;5106320;28;20030;-71
2022/11/10 08:00:31;;;;;;;52.55;25.13;;;;;;;9.10;nan;101287.94;5092367;27;20024;-70
2022/11/10 08:03:00;;;;;;;54.10;23.48;;;;;;;;;;5112246;27;20026;-72
2022/11/10 08:05:26;;;;;;;54.42;24.27;;;;;;;;;;5106434;27;20041;-74
2022/11/10 08:07:51;;;;;;;47.40;23.97;;;;;;;;;;5102074;27;20028;-73
2022/11/10 08:10:17;;;;;;;47.55;22.65;;;;;;;;;;5109077;27;20028;-72
2022/11/10 08:12:42;;;;;;;50.50;23.77;;;;;;;;;;5109131;27;20051;-72
2022/11/10 08:15:07;;;;;;;52.27;23.40;;;;;;;;;;5109677;27;20020;-72
2022/11/10 08:17:33;;;;;;;53.10;24.52;;;;;;;;;;5107001;27;20836;-73
2022/11/10 08:19:58;;;;;;;47.43;22.90;;;;;;;;;;5091812;27;20089;-72
2022/11/10 08:22:23;;;;;;;48.08;22.70;;;;;;;;;;5110967;27;20362;-73
2022/11/10 08:24:48;;;;;;;42.93;21.83;;;;;;;;;;5092895;28;20024;-73
2022/11/10 08:27:14;;;;;;;51.93;23.23;;;;;;;;;;5098720;28;20284;-73
2022/11/10 08:29:39;;;;;;;49.37;23.77;;;;;;;;;;5093660;28;20020;-73
2022/11/10 08:32:04;;;;;;;47.93;23.83;;;;;;;;;;5102781;27;20275;-72
2022/11/10 08:34:29;;;;;;;44.50;22.70;;;;;;;;;;5103929;27;20267;-74
2022/11/10 08:36:55;;;;;;;41.87;21.87;;;;;;;;;;5104349;27;20027;-73
2022/11/10 08:39:20;;;;;;;49.90;23.10;;;;;;;;;;5110213;27;20054;-73
2022/11/10 08:41:46;;;;;;;289.03;61.50;;;;;;;;;;5103996;27;20287;-73
2022/11/10 08:44:12;;;;;;;637.42;154.00;;;;;;;;;;5105874;27;20028;-73
2022/11/10 08:46:37;;;;;;;74.53;32.40;;;;;;;;;;5083688;28;20046;-73
2022/11/10 08:49:02;;;;;;;53.97;26.95;;;;;;;;;;5112062;27;20464;-73
2022/11/10 08:51:28;;;;;;;51.07;23.80;;;;;;;;;;5090750;28;20020;-73
2022/11/10 08:53:53;;;;;;;45.87;24.70;;;;;;;;;;5096814;27;20096;-73
2022/11/10 08:56:18;;;;;;;44.70;23.00;;;;;;;;;;5103305;27;20280;-73
2022/11/10 08:58:43;;;;;;;42.07;22.17;;;;;;;;;;5108573;27;20030;-73
2022/11/10 09:01:10;;;;;;;41.87;21.87;;;;;;;;;;5112834;27;20272;-72
2022/11/10 09:03:35;;;;;;;44.85;23.85;;;;;;;;;;5107346;27;20336;-73
2022/11/10 09:06:00;;;;;;;46.67;24.07;;;;;;;;;;5089525;28;20077;-73
2022/11/10 09:08:26;;;;;;;45.03;24.50;;;;;;;;;;5110166;27;20039;-73
2022/11/10 09:10:51;;;;;;;43.38;23.70;;;;;;;;;;5105534;27;20477;-73
2022/11/10 09:13:17;;;;;;;46.55;24.27;;;;;;;;;;5100685;27;20051;-72
2022/11/10 09:15:43;;;;;;;45.33;24.88;;;;;;;;;;5092379;28;20036;-73
2022/11/10 09:18:08;;;;;;;48.40;25.95;;;;;;;;;;5088481;28;20535;-72
2022/11/10 09:20:34;;;;;;;48.65;26.98;;;;;;;;;;5108700;27;20027;-73
2022/11/10 09:23:08;;;;;;;53.70;26.45;;;;;;;;;;5109877;27;20035;-73
2022/11/10 09:25:33;;;;;;;46.65;25.23;;;;;;;;;;5088603;28;20036;-73
2022/11/10 09:27:59;;;;;;;57.85;30.33;;;;;;;;;;5088109;28;20066;-73
2022/11/10 09:30:25;;;;;;;50.97;25.83;;;;;;;;;;5088518;28;20114;-72
2022/11/10 09:32:54;;;;;;;51.00;27.52;;;;;;;;;;5102847;27;20031;-73
2022/11/10 09:35:19;;;;;;;64.50;33.75;;;;;;;;;;5106102;27;20106;-72
2022/11/10 09:37:44;;;;;;;59.67;31.60;;;;;;;;;;5097543;28;20579;-72
2022/11/10 09:40:23;;;;;;;50.40;30.13;;;;;;;;;;5105652;27;20442;-72
2022/11/10 09:42:52;;;;;;;54.45;29.73;;;;;;;;;;5093308;28;20016;-73
2022/11/10 09:45:26;;;;;;;55.97;29.65;;;;;;;;;;5109748;27;20016;-72
2022/11/10 09:48:00;;;;;;;52.60;28.67;;;;;;;10.83;nan;101322.63;5108311;27;20472;-73
2022/11/10 09:50:41;;;;;;;55.08;27.98;;;;;;;;;;5103188;27;20385;-72
2022/11/10 09:53:12;;;;;;;56.55;27.13;;;;;;;;;;5107226;27;20422;-72
2022/11/10 09:55:42;;;;;;;54.08;27.42;;;;;;;;;;5089548;28;20076;-73
2022/11/10 09:58:11;;;;;;;56.47;28.83;;;;;;;;;;5105699;27;20023;-73
2022/11/10 10:00:36;;;;;;;57.47;28.60;;;;;;;11.08;nan;101348.34;5091861;27;20068;-72
2022/11/10 10:03:03;;;;;;;56.45;28.90;;;;;;;;;;5104261;27;20268;-73
2022/11/10 10:05:34;;;;;;;56.00;28.63;;;;;;;;;;5105037;27;20094;-72
2022/11/10 10:08:06;;;;;;;54.08;28.55;;;;;;;;;;5107779;27;20055;-72
2022/11/10 10:10:31;;;;;;;52.15;27.73;;;;;;;;;;5106564;27;20055;-73
2022/11/10 10:13:15;;;;;;;53.23;28.80;;;;;;;;;;5089703;28;20506;-73
2022/11/10 10:15:59;;;;;;;52.05;27.00;;;;;;;;;;5109195;27;20020;-73
2022/11/10 10:18:24;;;;;;;51.80;28.17;;;;;;;;;;5111505;27;20023;-73
2022/11/10 10:20:49;;;;;;;51.53;27.17;;;;;;;;;;5095169;28;20362;-73
2022/11/10 10:23:24;;;;;;;54.27;27.87;;;;;;;;;;5088715;28;20031;-73
2022/11/10 10:25:51;;;;;;;55.45;27.80;;;;;;;;;;5105319;27;20023;-73
2022/11/10 10:28:36;;;;;;;56.50;28.30;;;;;;;;;;5097881;28;20028;-73
2022/11/10 10:31:14;;;;;;;53.97;27.42;;;;;;;;;;5109215;28;20127;-72
2022/11/10 10:33:39;;;;;;;55.40;28.48;;;;;;;;;;5090048;28;20023;-73
2022/11/10 10:36:13;;;;;;;52.33;28.55;;;;;;;;;;5110292;28;20031;-73
2022/11/10 10:38:39;;;;;;;55.67;28.85;;;;;;;;;;5102210;28;20016;-73
2022/11/10 10:41:14;;;;;;;52.80;28.63;;;;;;;;;;5088759;28;20049;-71
2022/11/10 10:43:40;;;;;;;56.42;28.08;;;;;;;;;;5106327;28;20028;-72
2022/11/10 10:46:07;;;;;;;55.58;28.50;;;;;;;;;;5089143;28;20069;-75
2022/11/10 10:48:33;;;;;;;53.63;29.17;;;;;;;;;;5104366;28;20107;-75
2022/11/10 10:50:58;;;;;;;54.80;29.27;;;;;;;;;;5113633;28;20447;-75
2022/11/10 10:53:23;;;;;;;55.90;29.07;;;;;;;;;;5109735;27;20089;-75
2022/11/10 10:56:05;;;;;;;56.00;30.33;;;;;;;;;;5113704;27;20027;-74
2022/11/10 10:58:35;;;;;;;57.63;30.10;;;;;;;;;;5102734;27;20028;-71
2022/11/10 11:01:24;;;;;;;56.97;31.05;;;;;;;;;;5101865;27;20031;-72
2022/11/10 11:03:50;;;;;;;59.90;30.57;;;;;;;;;;5092278;27;20043;-72
2022/11/10 11:06:18;;;;;;;137.05;45.22;;;;;;;;;;5097098;27;20381;-72
2022/11/10 11:08:58;;;;;;;70.10;35.17;;;;;;;;;;5102996;27;20036;-71
2022/11/10 11:11:30;;;;;;;86.75;51.90;;;;;;;;;;5102279;27;20028;-73
2022/11/10 11:14:16;;;;;;;56.63;33.33;;;;;;;;;;5100820;27;20497;-71
2022/11/10 11:16:45;;;;;;;58.65;31.27;;;;;;;;;;5105027;27;20047;-72
2022/11/10 11:19:10;;;;;;;59.50;31.42;;;;;;;;;;5096238;27;20038;-70
2022/11/10 11:21:40;;;;;;;63.63;33.50;;;;;;;;;;5113041;27;20027;-71
2022/11/10 11:24:14;;;;;;;57.70;31.75;;;;;;;;;;5105828;28;20748;-71
2022/11/10 11:26:51;;;;;;;55.53;30.50;;;;;;;;;;5087409;28;20418;-71
2022/11/10 11:29:29;;;;;;;56.25;29.73;;;;;;;;;;5108838;27;20530;-71
2022/11/10 11:31:54;;;;;;;61.08;30.42;;;;;;;;;;5107372;27;20143;-71
2022/11/10 11:34:46;;;;;;;54.80;29.87;;;;;;;;;;5103080;27;20414;-70
2022/11/10 11:37:11;;;;;;;50.75;29.20;;;;;;;;;;5061781;28;20035;-72
2022/11/10 11:39:46;;;;;;;58.70;29.77;;;;;;;;;;5111312;27;20023;-72
2022/11/10 11:42:23;;;;;;;55.95;29.25;;;;;;;;;;5103338;27;20081;-72
2022/11/10 11:44:55;;;;;;;53.80;30.40;;;;;;;;;;5106742;28;20023;-71
2022/11/10 11:47:20;;;;;;;56.47;30.13;;;;;;;;;;5082153;28;20035;-71
2022/11/10 11:50:18;;;;;;;57.50;31.10;;;;;;;;;;5075935;28;20024;-71
2022/11/10 11:53:21;;;;;;;55.15;30.08;;;;;;;;;;5061775;27;20288;-72
2022/11/10 11:55:47;;;;;;;65.30;32.38;;;;;;;;;;4992446;28;20030;-72
2022/11/10 11:58:30;;;;;;;62.67;30.93;;;;;;;;;;4993262;28;20566;-71
2022/11/10 12:01:00;;;;;;;66.05;31.52;;;;;;;;;;5007200;28;20042;-71
2022/11/10 12:03:25;;;;;;;61.72;30.85;;;;;;;;;;5003690;28;20499;-72
2022/11/10 12:05:51;;;;;;;59.03;31.70;;;;;;;;;;5004310;28;20033;-72
2022/11/10 12:08:28;;;;;;;63.50;31.07;;;;;;;;;;5009849;28;20041;-72
2022/11/10 12:11:04;;;;;;;59.78;30.88;;;;;;;;;;5008182;28;20057;-70
2022/11/10 12:13:48;;;;;;;64.07;31.35;;;;;;;;;;5000604;28;20512;-72
2022/11/10 12:16:14;;;;;;;60.15;31.15;;;;;;;;;;4992381;28;20467;-72
2022/11/10 12:18:47;;;;;;;62.90;32.67;;;;;;;;;;4993007;28;20029;-73
2022/11/10 12:21:15;;;;;;;59.92;31.20;;;;;;;;;;5010662;28;20492;-72
2022/11/10 12:23:44;;;;;;;63.80;31.42;;;;;;;;;;5005651;28;20033;-72
2022/11/10 12:26:28;;;;;;;63.58;33.35;;;;;;;;;;5029912;28;20052;-71
2022/11/10 12:29:12;;;;;;;62.83;33.35;;;;;;;;;;5085489;28;20035;-71
2022/11/10 12:31:38;;;;;;;66.10;33.53;;;;;;;;;;5089063;28;20497;-71
2022/11/10 12:34:17;;;;;;;63.95;31.95;;;;;;;;;;5085160;28;20027;-71
2022/11/10 12:36:43;;;;;;;64.18;33.63;;;;;;;;;;5086962;28;20030;-71
2022/11/10 12:39:11;;;;;;;64.18;33.20;;;;;;;;;;5087368;28;20028;-72
2022/11/10 12:41:42;;;;;;;64.88;34.03;;;;;;;;;;5085266;28;20028;-72
2022/11/10 12:44:27;;;;;;;60.50;33.15;;;;;;;;;;5086976;28;20106;-72
2022/11/10 12:46:54;;;;;;;64.75;31.92;;;;;;;;;;5086918;28;20591;-72
2022/11/10 12:49:34;;;;;;;63.03;32.78;;;;;;;;;;5084306;28;20086;-72
2022/11/10 12:52:05;;;;;;;59.78;32.10;;;;;;;;;;5089900;28;20551;-72
2022/11/10 12:54:32;;;;;;;64.13;31.77;;;;;;;;;;5082544;28;20028;-76
2022/11/10 12:57:05;;;;;;;63.55;31.13;;;;;;;;;;5082685;28;20036;-76
2022/11/10 12:59:31;;;;;;;60.72;32.13;;;;;;;;;;5079909;28;20111;-76
2022/11/10 13:01:58;;;;;;;59.85;31.20;;;;;;;;;;5081304;28;20028;-73
2022/11/10 13:04:24;;;;;;;60.47;32.38;;;;;;;;;;5082237;28;20683;-71
2022/11/10 13:06:51;;;;;;;60.35;31.60;;;;;;;;;;5087783;28;20099;-72
2022/11/10 13:09:26;;;;;;;64.13;32.90;;;;;;;;;;5088605;28;20029;-71
2022/11/10 13:12:15;;;;;;;64.90;33.38;;;;;;;;;;5080194;28;20046;-72
2022/11/10 13:14:41;;;;;;;55.72;31.65;;;;;;;;;;5076051;28;20413;-71
2022/11/10 13:17:07;;;;;;;67.10;32.88;;;;;;;;;;5078677;28;20037;-73
2022/11/10 13:19:37;;;;;;;62.28;33.45;;;;;;;;;;5089625;28;20485;-72
2022/11/10 13:22:04;;;;;;;63.10;34.85;;;;;;;;;;5077402;28;20040;-71
2022/11/10 13:24:36;;;;;;;87.85;43.35;;;;;;;;;;5082456;28;20086;-71
2022/11/10 13:27:12;;;;;;;87.53;44.90;;;;;;;;;;5083983;28;20031;-71
2022/11/10 13:29:46;;;;;;;140.77;72.10;;;;;;;;;;5080459;28;20038;-72
2022/11/10 13:32:22;;;;;;;178.40;101.18;;;;;;;;;;5085893;28;20043;-71
2022/11/10 13:34:48;;;;;;;127.43;76.50;;;;;;;;;;5090554;28;20150;-72
2022/11/10 13:37:28;;;;;;;110.45;65.90;;;;;;;;;;5079678;28;20503;-73
2022/11/10 13:40:12;;;;;;;101.65;54.47;;;;;;;;;;5074755;28;20028;-72
2022/11/10 13:42:38;;;;;;;135.07;66.22;;;;;;;;;;5085331;28;20031;-74
2022/11/10 13:45:21;;;;;;;198.87;99.20;;;;;;;;;;5087970;28;20028;-69
2022/11/10 13:48:13;;;;;;;131.93;67.13;;;;;;;;;;5089225;28;20281;-71
2022/11/10 13:50:57;;;;;;;98.43;54.28;;;;;;;;;;5053223;28;20048;-71
2022/11/10 13:53:25;;;;;;;86.22;48.35;;;;;;;;;;5072192;28;20027;-68
2022/11/10 13:56:29;;;;;;;88.35;48.25;;;;;;;;;;5086148;28;20026;-71
2022/11/10 13:58:54;;;;;;;97.32;51.55;;;;;;;;;;5022816;28;20398;-71
2022/11/10 14:01:22;;;;;;;86.70;48.45;;;;;;;;;;5008549;28;20068;-72
2022/11/10 14:03:47;;;;;;;86.97;45.50;;;;;;;;;;5032428;28;20045;-72
2022/11/10 14:06:20;;;;;;;80.57;43.70;;;;;;;;;;5011843;28;20034;-71
2022/11/10 14:08:54;;;;;;;69.57;40.55;;;;;;;;;;5011731;28;20025;-72
2022/11/10 14:11:23;;;;;;;78.88;41.85;;;;;;;;;;5007664;28;20048;-73
2022/11/10 14:13:57;;;;;;;198.82;86.50;;;;;;;;;;5018385;28;20056;-72
2022/11/10 14:16:24;;;;;;;322.80;140.65;;;;;;;;;;5020719;28;20052;-72
2022/11/10 14:19:13;;;;;;;275.95;120.03;;;;;;;;;;5020828;28;20183;-73
2022/11/10 14:21:44;;;;;;;181.30;81.40;;;;;;;;;;5025458;28;20036;-73
2022/11/10 14:24:17;;;;;;;153.13;73.32;;;;;;;13.07;nan;101451.47;5019513;28;20116;-73
2022/11/10 14:26:42;;;;;;;87.38;44.15;;;;;;;;;;5007815;28;20028;-72
2022/11/10 14:29:26;;;;;;;69.90;36.97;;;;;;;;;;5027734;28;20124;-72